sensor_id;sensor_type;location;lat;lon;timestamp;P1;P2;P0
61873;PMS5003;49692;55.052;73.310;2022-10-23T00:01:39;0.75;0.00;0.00
61873;PMS5003;49692;55.052;73.310;2022-10-23T00:04:11;0.00;0.00;0.00
61873;PMS5003;49692;55.052;73.310;2022-10-23T00:06:50;0.00;0.00;0.00
61873;PMS5003;49692;55.052;73.310;2022-10-23T00:09:18;0.00;0.00;0.00
61873;PMS5003;49692;55.052;73.310;2022-10-23T00:11:48;0.00;0.00;0.00
61873;PMS5003;49692;55.052;73.310;2022-10-23T00:14:20;0.00;0.00;0.00
61873;PMS5003;49692;55.052;73.310;2022-10-23T00:16:48;0.00;0.00;0.00
61873;PMS5003;49692;55.052;73.310;2022-10-23T00:19:16;1.50;0.00;0.00
61873;PMS5003;49692;55.052;73.310;2022-10-23T00:21:45;0.00;0.00;0.00
61873;PMS5003;49692;55.052;73.310;2022-10-23T00:24:11;0.00;0.00;0.00
61873;PMS5003;49692;55.052;73.310;2022-10-23T00:26:43;0.00;0.00;0.00
61873;PMS5003;49692;55.052;73.310;2022-10-23T00:29:10;1.00;0.00;0.00
61873;PMS5003;49692;55.052;73.310;2022-10-23T00:31:38;0.25;0.00;0.00
61873;PMS5003;49692;55.052;73.310;2022-10-23T00:34:04;1.50;0.00;0.00
61873;PMS5003;49692;55.052;73.310;2022-10-23T00:36:34;1.50;0.00;0.00
61873;PMS5003;49692;55.052;73.310;2022-10-23T00:39:01;0.00;0.00;0.00
61873;PMS5003;49692;55.052;73.310;2022-10-23T00:41:28;0.25;0.00;0.00
61873;PMS5003;49692;55.052;73.310;2022-10-23T00:44:08;0.00;0.00;0.00
61873;PMS5003;49692;55.052;73.310;2022-10-23T00:46:57;0.00;0.00;0.00
61873;PMS5003;49692;55.052;73.310;2022-10-23T00:49:26;1.50;0.00;0.00
61873;PMS5003;49692;55.052;73.310;2022-10-23T00:51:55;0.00;0.00;0.00
61873;PMS5003;49692;55.052;73.310;2022-10-23T00:54:24;0.00;0.00;0.00
61873;PMS5003;49692;55.052;73.310;2022-10-23T00:56:56;1.75;0.00;0.00
61873;PMS5003;49692;55.052;73.310;2022-10-23T00:59:27;0.00;0.00;0.00
61873;PMS5003;49692;55.052;73.310;2022-10-23T01:01:54;0.00;0.00;0.00
61873;PMS5003;49692;55.052;73.310;2022-10-23T01:04:21;0.50;0.50;0.00
61873;PMS5003;49692;55.052;73.310;2022-10-23T01:12:25;0.00;0.00;0.00
61873;PMS5003;49692;55.052;73.310;2022-10-23T01:15:16;0.00;0.00;0.00
61873;PMS5003;49692;55.052;73.310;2022-10-23T01:18:10;0.00;0.00;0.00
61873;PMS5003;49692;55.052;73.310;2022-10-23T01:20:51;1.00;0.00;0.00
61873;PMS5003;49692;55.052;73.310;2022-10-23T01:43:22;1.50;1.00;0.00
61873;PMS5003;49692;55.052;73.310;2022-10-23T01:45:55;3.00;0.75;0.25
61873;PMS5003;49692;55.052;73.310;2022-10-23T01:48:27;1.50;0.50;0.00
61873;PMS5003;49692;55.052;73.310;2022-10-23T01:50:57;0.00;0.00;0.00
61873;PMS5003;49692;55.052;73.310;2022-10-23T01:53:29;0.00;0.00;0.00
61873;PMS5003;49692;55.052;73.310;2022-10-23T01:56:01;0.00;0.00;0.00
61873;PMS5003;49692;55.052;73.310;2022-10-23T01:58:32;1.00;0.00;0.00
61873;PMS5003;49692;55.052;73.310;2022-10-23T02:01:02;0.00;0.00;0.00
61873;PMS5003;49692;55.052;73.310;2022-10-23T02:03:33;4.00;1.00;1.00
61873;PMS5003;49692;55.052;73.310;2022-10-23T02:06:13;2.00;0.75;0.75
61873;PMS5003;49692;55.052;73.310;2022-10-23T02:08:40;0.00;0.00;0.00
61873;PMS5003;49692;55.052;73.310;2022-10-23T02:11:16;3.00;2.00;1.00
61873;PMS5003;49692;55.052;73.310;2022-10-23T02:16:38;0.00;0.00;0.00
61873;PMS5003;49692;55.052;73.310;2022-10-23T02:27:45;3.50;1.50;0.50
61873;PMS5003;49692;55.052;73.310;2022-10-23T02:30:18;6.00;3.00;3.00
61873;PMS5003;49692;55.052;73.310;2022-10-23T02:32:52;3.50;3.50;3.00
61873;PMS5003;49692;55.052;73.310;2022-10-23T02:35:22;10.00;3.75;3.75
61873;PMS5003;49692;55.052;73.310;2022-10-23T02:37:59;6.80;5.20;3.00
61873;PMS5003;49692;55.052;73.310;2022-10-23T02:40:37;3.75;1.00;1.00
61873;PMS5003;49692;55.052;73.310;2022-10-23T02:43:09;43.80;30.40;25.40
61873;PMS5003;49692;55.052;73.310;2022-10-23T02:45:59;9.00;6.00;4.00
61873;PMS5003;49692;55.052;73.310;2022-10-23T02:48:40;18.20;13.40;9.80
61873;PMS5003;49692;55.052;73.310;2022-10-23T02:51:20;17.00;15.40;10.00
61873;PMS5003;49692;55.052;73.310;2022-10-23T02:54:07;11.25;7.50;6.25
61873;PMS5003;49692;55.052;73.310;2022-10-23T02:57:02;27.80;18.60;11.60
61873;PMS5003;49692;55.052;73.310;2022-10-23T02:59:38;36.60;31.60;23.20
61873;PMS5003;49692;55.052;73.310;2022-10-23T03:04:51;49.40;36.20;22.20
61873;PMS5003;49692;55.052;73.310;2022-10-23T03:07:21;36.00;28.00;21.00
61873;PMS5003;49692;55.052;73.310;2022-10-23T03:09:58;62.80;47.20;26.20
61873;PMS5003;49692;55.052;73.310;2022-10-23T03:12:25;53.60;39.80;27.00
61873;PMS5003;49692;55.052;73.310;2022-10-23T03:14:51;35.00;28.20;16.00
61873;PMS5003;49692;55.052;73.310;2022-10-23T03:17:18;47.60;26.60;15.60
61873;PMS5003;49692;55.052;73.310;2022-10-23T03:19:50;36.20;22.60;16.40
61873;PMS5003;49692;55.052;73.310;2022-10-23T03:22:18;27.40;15.40;13.80
61873;PMS5003;49692;55.052;73.310;2022-10-23T03:24:46;10.40;10.40;9.00
61873;PMS5003;49692;55.052;73.310;2022-10-23T03:27:13;9.00;7.00;6.00
61873;PMS5003;49692;55.052;73.310;2022-10-23T03:29:46;16.00;9.25;7.00
61873;PMS5003;49692;55.052;73.310;2022-10-23T03:32:15;3.50;2.00;1.00
61873;PMS5003;49692;55.052;73.310;2022-10-23T03:34:48;3.00;3.00;1.50
61873;PMS5003;49692;55.052;73.310;2022-10-23T03:37:15;4.00;0.00;0.00
61873;PMS5003;49692;55.052;73.310;2022-10-23T03:39:43;3.75;1.00;1.00
61873;PMS5003;49692;55.052;73.310;2022-10-23T03:42:10;1.67;1.00;1.00
61873;PMS5003;49692;55.052;73.310;2022-10-23T03:44:41;8.00;3.00;2.00
61873;PMS5003;49692;55.052;73.310;2022-10-23T03:47:17;3.75;0.75;0.25
61873;PMS5003;49692;55.052;73.310;2022-10-23T03:49:56;2.75;0.00;0.00
61873;PMS5003;49692;55.052;73.310;2022-10-23T03:52:26;1.00;0.00;0.00
61873;PMS5003;49692;55.052;73.310;2022-10-23T03:54:53;1.00;0.25;0.00
61873;PMS5003;49692;55.052;73.310;2022-10-23T03:57:19;2.50;1.50;0.50
61873;PMS5003;49692;55.052;73.310;2022-10-23T03:59:48;1.50;0.50;0.00
61873;PMS5003;49692;55.052;73.310;2022-10-23T04:02:16;1.50;0.00;0.00
61873;PMS5003;49692;55.052;73.310;2022-10-23T04:04:45;3.25;1.00;0.00
61873;PMS5003;49692;55.052;73.310;2022-10-23T04:07:13;0.00;0.00;0.00
61873;PMS5003;49692;55.052;73.310;2022-10-23T04:09:41;6.00;0.75;0.00
61873;PMS5003;49692;55.052;73.310;2022-10-23T04:12:12;3.50;1.00;1.00
61873;PMS5003;49692;55.052;73.310;2022-10-23T04:14:40;2.75;1.00;0.25
61873;PMS5003;49692;55.052;73.310;2022-10-23T04:17:07;2.75;1.50;0.50
61873;PMS5003;49692;55.052;73.310;2022-10-23T04:19:41;3.00;3.00;1.00
61873;PMS5003;49692;55.052;73.310;2022-10-23T04:22:11;3.25;0.25;0.00
61873;PMS5003;49692;55.052;73.310;2022-10-23T04:24:38;4.00;2.50;1.50
61873;PMS5003;49692;55.052;73.310;2022-10-23T04:27:28;2.00;0.00;0.00
61873;PMS5003;49692;55.052;73.310;2022-10-23T04:29:56;6.50;3.00;3.00
61873;PMS5003;49692;55.052;73.310;2022-10-23T04:32:24;4.00;0.75;0.00
61873;PMS5003;49692;55.052;73.310;2022-10-23T04:34:53;5.25;1.50;1.00
61873;PMS5003;49692;55.052;73.310;2022-10-23T04:37:19;3.00;1.00;1.00
61873;PMS5003;49692;55.052;73.310;2022-10-23T04:39:47;4.50;1.00;1.00
61873;PMS5003;49692;55.052;73.310;2022-10-23T04:42:27;2.00;2.00;2.00
61873;PMS5003;49692;55.052;73.310;2022-10-23T04:45:00;3.00;3.00;1.00
61873;PMS5003;49692;55.052;73.310;2022-10-23T04:47:28;2.00;2.00;0.00
61873;PMS5003;49692;55.052;73.310;2022-10-23T04:49:58;1.00;1.00;0.50
61873;PMS5003;49692;55.052;73.310;2022-10-23T04:52:54;5.00;1.00;1.00
61873;PMS5003;49692;55.052;73.310;2022-10-23T04:55:50;2.00;0.50;0.00
61873;PMS5003;49692;55.052;73.310;2022-10-23T04:58:51;5.25;2.00;0.75
61873;PMS5003;49692;55.052;73.310;2022-10-23T05:01:18;2.25;1.00;0.50
61873;PMS5003;49692;55.052;73.310;2022-10-23T05:03:48;3.50;0.50;0.00
61873;PMS5003;49692;55.052;73.310;2022-10-23T05:06:15;4.00;1.00;1.00
61873;PMS5003;49692;55.052;73.310;2022-10-23T05:08:48;0.25;0.25;0.25
61873;PMS5003;49692;55.052;73.310;2022-10-23T05:11:41;1.50;1.00;0.50
61873;PMS5003;49692;55.052;73.310;2022-10-23T05:14:31;8.75;3.50;3.00
61873;PMS5003;49692;55.052;73.310;2022-10-23T05:17:03;12.00;6.50;4.00
61873;PMS5003;49692;55.052;73.310;2022-10-23T05:19:48;4.25;3.00;3.00
61873;PMS5003;49692;55.052;73.310;2022-10-23T05:22:25;4.75;0.50;0.50
61873;PMS5003;49692;55.052;73.310;2022-10-23T05:25:03;5.50;3.00;2.00
61873;PMS5003;49692;55.052;73.310;2022-10-23T05:28:13;3.50;3.50;3.00
61873;PMS5003;49692;55.052;73.310;2022-10-23T05:31:29;6.25;1.00;0.75
61873;PMS5003;49692;55.052;73.310;2022-10-23T05:34:14;8.50;3.75;3.00
61873;PMS5003;49692;55.052;73.310;2022-10-23T05:37:14;3.50;1.00;1.00
61873;PMS5003;49692;55.052;73.310;2022-10-23T05:40:06;4.00;3.00;1.50
61873;PMS5003;49692;55.052;73.310;2022-10-23T05:42:37;7.00;6.00;4.50
61873;PMS5003;49692;55.052;73.310;2022-10-23T05:45:05;5.00;3.00;2.50
61873;PMS5003;49692;55.052;73.310;2022-10-23T05:48:00;4.50;3.75;1.50
61873;PMS5003;49692;55.052;73.310;2022-10-23T05:50:48;8.00;3.00;1.00
61873;PMS5003;49692;55.052;73.310;2022-10-23T05:53:35;8.50;4.00;3.50
61873;PMS5003;49692;55.052;73.310;2022-10-23T05:56:25;15.50;8.00;5.50
61873;PMS5003;49692;55.052;73.310;2022-10-23T05:59:03;6.75;4.00;3.00
61873;PMS5003;49692;55.052;73.310;2022-10-23T06:01:51;21.75;13.25;9.00
61873;PMS5003;49692;55.052;73.310;2022-10-23T06:04:29;5.00;3.00;3.00
61873;PMS5003;49692;55.052;73.310;2022-10-23T06:07:16;4.50;3.25;2.50
61873;PMS5003;49692;55.052;73.310;2022-10-23T06:09:47;6.00;3.00;2.50
61873;PMS5003;49692;55.052;73.310;2022-10-23T06:12:14;4.00;3.00;1.00
61873;PMS5003;49692;55.052;73.310;2022-10-23T06:14:45;4.75;0.00;0.00
61873;PMS5003;49692;55.052;73.310;2022-10-23T06:17:14;5.00;3.00;3.00
61873;PMS5003;49692;55.052;73.310;2022-10-23T06:19:44;1.50;1.00;1.00
61873;PMS5003;49692;55.052;73.310;2022-10-23T06:22:13;4.00;3.00;3.00
61873;PMS5003;49692;55.052;73.310;2022-10-23T06:24:52;6.50;5.00;2.75
61873;PMS5003;49692;55.052;73.310;2022-10-23T06:27:36;0.00;0.00;0.00
61873;PMS5003;49692;55.052;73.310;2022-10-23T06:30:04;4.00;3.00;3.00
61873;PMS5003;49692;55.052;73.310;2022-10-23T06:32:33;3.25;3.00;3.00
61873;PMS5003;49692;55.052;73.310;2022-10-23T06:35:15;4.50;3.25;3.00
61873;PMS5003;49692;55.052;73.310;2022-10-23T06:37:42;3.00;3.00;3.00
61873;PMS5003;49692;55.052;73.310;2022-10-23T06:40:20;6.75;5.50;4.00
61873;PMS5003;49692;55.052;73.310;2022-10-23T06:43:01;5.50;0.75;0.50
61873;PMS5003;49692;55.052;73.310;2022-10-23T06:46:08;4.00;3.00;1.00
61873;PMS5003;49692;55.052;73.310;2022-10-23T06:48:54;2.00;1.00;1.00
61873;PMS5003;49692;55.052;73.310;2022-10-23T06:51:35;6.75;3.00;3.00
61873;PMS5003;49692;55.052;73.310;2022-10-23T06:54:05;2.00;0.50;0.50
61873;PMS5003;49692;55.052;73.310;2022-10-23T06:56:56;7.50;3.25;2.50
61873;PMS5003;49692;55.052;73.310;2022-10-23T06:59:33;73.60;52.40;31.40
61873;PMS5003;49692;55.052;73.310;2022-10-23T07:02:01;50.80;38.40;24.00
61873;PMS5003;49692;55.052;73.310;2022-10-23T07:04:30;6.50;6.00;3.50
61873;PMS5003;49692;55.052;73.310;2022-10-23T07:07:04;4.00;4.00;3.00
61873;PMS5003;49692;55.052;73.310;2022-10-23T07:09:45;11.25;6.50;4.00
61873;PMS5003;49692;55.052;73.310;2022-10-23T07:12:24;8.00;1.50;1.00
61873;PMS5003;49692;55.052;73.310;2022-10-23T07:15:15;5.25;3.00;3.00
61873;PMS5003;49692;55.052;73.310;2022-10-23T07:17:43;12.75;6.50;4.00
61873;PMS5003;49692;55.052;73.310;2022-10-23T07:20:11;9.50;4.50;3.00
61873;PMS5003;49692;55.052;73.310;2022-10-23T07:22:39;10.00;6.25;3.50
61873;PMS5003;49692;55.052;73.310;2022-10-23T07:25:12;2.00;1.00;0.00
61873;PMS5003;49692;55.052;73.310;2022-10-23T07:27:40;2.50;0.50;0.00
61873;PMS5003;49692;55.052;73.310;2022-10-23T07:30:09;4.00;4.00;3.00
61873;PMS5003;49692;55.052;73.310;2022-10-23T07:32:48;6.25;3.00;1.50
61873;PMS5003;49692;55.052;73.310;2022-10-23T07:35:24;7.75;4.00;2.00
61873;PMS5003;49692;55.052;73.310;2022-10-23T07:37:58;9.00;4.00;3.00
61873;PMS5003;49692;55.052;73.310;2022-10-23T07:40:28;7.75;4.00;3.00
61873;PMS5003;49692;55.052;73.310;2022-10-23T07:42:56;5.50;3.50;3.00
61873;PMS5003;49692;55.052;73.310;2022-10-23T07:45:35;4.00;2.00;1.00
61873;PMS5003;49692;55.052;73.310;2022-10-23T07:48:28;4.00;3.00;1.00
61873;PMS5003;49692;55.052;73.310;2022-10-23T07:51:05;5.75;3.00;2.50
61873;PMS5003;49692;55.052;73.310;2022-10-23T07:53:48;3.50;3.00;1.00
61873;PMS5003;49692;55.052;73.310;2022-10-23T07:56:40;1.00;1.00;1.00
61873;PMS5003;49692;55.052;73.310;2022-10-23T07:59:16;5.50;3.00;1.00
61873;PMS5003;49692;55.052;73.310;2022-10-23T08:01:49;2.50;1.00;1.00
61873;PMS5003;49692;55.052;73.310;2022-10-23T08:04:19;5.00;3.50;1.00
61873;PMS5003;49692;55.052;73.310;2022-10-23T08:07:03;3.50;1.00;1.00
61873;PMS5003;49692;55.052;73.310;2022-10-23T08:09:39;10.25;6.50;4.50
61873;PMS5003;49692;55.052;73.310;2022-10-23T08:12:08;5.50;3.50;3.00
61873;PMS5003;49692;55.052;73.310;2022-10-23T08:14:38;6.00;4.00;3.50
61873;PMS5003;49692;55.052;73.310;2022-10-23T08:17:06;3.50;3.50;3.00
61873;PMS5003;49692;55.052;73.310;2022-10-23T08:20:04;8.50;4.00;3.00
61873;PMS5003;49692;55.052;73.310;2022-10-23T08:22:40;8.75;5.75;5.00
61873;PMS5003;49692;55.052;73.310;2022-10-23T08:25:12;8.00;4.00;3.00
61873;PMS5003;49692;55.052;73.310;2022-10-23T08:27:44;7.00;3.50;3.00
61873;PMS5003;49692;55.052;73.310;2022-10-23T08:30:12;6.75;5.50;3.50
61873;PMS5003;49692;55.052;73.310;2022-10-23T08:32:56;3.25;3.25;1.00
61873;PMS5003;49692;55.052;73.310;2022-10-23T08:35:30;7.50;2.00;2.00
61873;PMS5003;49692;55.052;73.310;2022-10-23T08:38:21;8.25;3.50;3.50
61873;PMS5003;49692;55.052;73.310;2022-10-23T08:41:04;6.00;3.00;2.50
61873;PMS5003;49692;55.052;73.310;2022-10-23T08:43:59;5.00;4.00;3.00
61873;PMS5003;49692;55.052;73.310;2022-10-23T08:46:39;6.00;3.00;1.50
61873;PMS5003;49692;55.052;73.310;2022-10-23T08:55:11;8.00;3.00;3.00
61873;PMS5003;49692;55.052;73.310;2022-10-23T09:00:35;6.50;3.50;2.00
61873;PMS5003;49692;55.052;73.310;2022-10-23T09:03:03;6.00;2.50;2.50
61873;PMS5003;49692;55.052;73.310;2022-10-23T09:06:17;2.75;1.00;0.00
61873;PMS5003;49692;55.052;73.310;2022-10-23T09:08:38;5.75;5.50;3.75
61873;PMS5003;49692;55.052;73.310;2022-10-23T09:11:33;3.50;3.00;2.00
61873;PMS5003;49692;55.052;73.310;2022-10-23T09:14:24;6.75;6.00;4.00
61873;PMS5003;49692;55.052;73.310;2022-10-23T09:17:31;12.50;9.00;6.00
61873;PMS5003;49692;55.052;73.310;2022-10-23T09:20:27;8.75;4.00;3.75
61873;PMS5003;49692;55.052;73.310;2022-10-23T09:23:21;2.50;1.00;0.50
61873;PMS5003;49692;55.052;73.310;2022-10-23T09:25:56;13.50;8.25;6.75
61873;PMS5003;49692;55.052;73.310;2022-10-23T09:28:31;11.00;11.00;9.50
61873;PMS5003;49692;55.052;73.310;2022-10-23T09:31:14;11.25;4.50;3.50
61873;PMS5003;49692;55.052;73.310;2022-10-23T09:38:02;8.00;8.00;5.00
61873;PMS5003;49692;55.052;73.310;2022-10-23T09:40:53;9.75;6.00;4.00
61873;PMS5003;49692;55.052;73.310;2022-10-23T09:43:22;14.25;12.00;9.25
61873;PMS5003;49692;55.052;73.310;2022-10-23T09:46:03;11.00;9.00;7.00
61873;PMS5003;49692;55.052;73.310;2022-10-23T09:48:33;16.75;11.50;9.00
61873;PMS5003;49692;55.052;73.310;2022-10-23T09:51:14;9.75;9.75;7.00
61873;PMS5003;49692;55.052;73.310;2022-10-23T09:53:49;9.25;7.00;7.00
61873;PMS5003;49692;55.052;73.310;2022-10-23T09:59:19;11.25;8.00;6.00
61873;PMS5003;49692;55.052;73.310;2022-10-23T10:05:29;16.00;12.50;6.75
61873;PMS5003;49692;55.052;73.310;2022-10-23T10:08:42;15.00;11.50;9.00
61873;PMS5003;49692;55.052;73.310;2022-10-23T10:36:40;19.25;17.50;10.00
61873;PMS5003;49692;55.052;73.310;2022-10-23T10:45:36;19.50;15.25;9.00
61873;PMS5003;49692;55.052;73.310;2022-10-23T10:57:41;17.75;13.50;9.75
61873;PMS5003;49692;55.052;73.310;2022-10-23T11:00:34;23.00;12.75;7.50
61873;PMS5003;49692;55.052;73.310;2022-10-23T11:03:21;17.00;15.75;10.75
61873;PMS5003;49692;55.052;73.310;2022-10-23T11:06:29;16.00;10.25;4.00
61873;PMS5003;49692;55.052;73.310;2022-10-23T11:10:05;22.25;18.25;13.00
61873;PMS5003;49692;55.052;73.310;2022-10-23T11:12:43;17.40;15.60;12.00
61873;PMS5003;49692;55.052;73.310;2022-10-23T11:15:17;15.40;15.40;10.00
61873;PMS5003;49692;55.052;73.310;2022-10-23T11:18:00;22.60;19.60;12.00
61873;PMS5003;49692;55.052;73.310;2022-10-23T11:24:10;24.00;21.00;12.25
61873;PMS5003;49692;55.052;73.310;2022-10-23T11:40:56;13.25;7.00;6.00
61873;PMS5003;49692;55.052;73.310;2022-10-23T11:43:31;23.00;15.00;9.25
61873;PMS5003;49692;55.052;73.310;2022-10-23T11:49:00;17.75;9.75;5.50
61873;PMS5003;49692;55.052;73.310;2022-10-23T11:54:21;18.25;12.00;5.00
61873;PMS5003;49692;55.052;73.310;2022-10-23T12:03:02;14.00;10.50;6.00
61873;PMS5003;49692;55.052;73.310;2022-10-23T12:05:38;1.00;1.00;1.00
61873;PMS5003;49692;55.052;73.310;2022-10-23T12:08:15;13.75;9.50;6.00
61873;PMS5003;49692;55.052;73.310;2022-10-23T12:10:47;8.75;6.00;1.00
61873;PMS5003;49692;55.052;73.310;2022-10-23T12:13:28;12.25;8.00;6.75
61873;PMS5003;49692;55.052;73.310;2022-10-23T12:16:10;9.50;7.00;5.50
61873;PMS5003;49692;55.052;73.310;2022-10-23T12:19:23;13.00;8.50;4.00
61873;PMS5003;49692;55.052;73.310;2022-10-23T12:22:07;18.50;10.00;9.00
61873;PMS5003;49692;55.052;73.310;2022-10-23T12:24:41;15.50;11.25;7.50
61873;PMS5003;49692;55.052;73.310;2022-10-23T12:30:34;14.00;11.00;6.00
61873;PMS5003;49692;55.052;73.310;2022-10-23T12:33:15;13.25;12.50;11.00
61873;PMS5003;49692;55.052;73.310;2022-10-23T12:39:34;18.00;13.50;9.00
61873;PMS5003;49692;55.052;73.310;2022-10-23T12:42:17;29.40;18.80;12.20
61873;PMS5003;49692;55.052;73.310;2022-10-23T12:47:56;13.00;12.00;8.00
61873;PMS5003;49692;55.052;73.310;2022-10-23T12:50:25;11.50;9.25;7.00
61873;PMS5003;49692;55.052;73.310;2022-10-23T12:52:58;15.25;10.00;7.50
61873;PMS5003;49692;55.052;73.310;2022-10-23T12:58:49;14.25;7.00;6.00
61873;PMS5003;49692;55.052;73.310;2022-10-23T13:01:32;12.50;6.75;5.50
61873;PMS5003;49692;55.052;73.310;2022-10-23T13:04:12;10.75;6.25;6.00
61873;PMS5003;49692;55.052;73.310;2022-10-23T13:06:58;12.25;9.75;6.75
61873;PMS5003;49692;55.052;73.310;2022-10-23T13:09:34;15.75;7.00;6.00
61873;PMS5003;49692;55.052;73.310;2022-10-23T13:12:28;12.50;7.00;6.00
61873;PMS5003;49692;55.052;73.310;2022-10-23T13:17:41;15.25;12.75;8.50
61873;PMS5003;49692;55.052;73.310;2022-10-23T13:20:28;8.50;5.00;1.00
61873;PMS5003;49692;55.052;73.310;2022-10-23T13:28:52;24.25;17.25;13.25
61873;PMS5003;49692;55.052;73.310;2022-10-23T13:31:24;13.25;8.50;7.00
61873;PMS5003;49692;55.052;73.310;2022-10-23T13:36:27;9.50;6.75;6.00
61873;PMS5003;49692;55.052;73.310;2022-10-23T13:41:48;11.50;7.00;4.00
61873;PMS5003;49692;55.052;73.310;2022-10-23T13:44:21;12.50;9.00;6.50
61873;PMS5003;49692;55.052;73.310;2022-10-23T13:46:53;13.00;6.50;4.00
61873;PMS5003;49692;55.052;73.310;2022-10-23T13:49:26;9.75;5.75;3.00
61873;PMS5003;49692;55.052;73.310;2022-10-23T13:51:59;7.50;6.50;4.50
61873;PMS5003;49692;55.052;73.310;2022-10-23T13:54:37;9.00;9.00;6.50
61873;PMS5003;49692;55.052;73.310;2022-10-23T13:57:05;11.00;8.00;6.00
61873;PMS5003;49692;55.052;73.310;2022-10-23T13:59:40;12.25;8.50;6.00
61873;PMS5003;49692;55.052;73.310;2022-10-23T14:02:19;14.50;7.00;4.50
61873;PMS5003;49692;55.052;73.310;2022-10-23T14:04:49;7.00;6.00;4.00
61873;PMS5003;49692;55.052;73.310;2022-10-23T14:07:20;14.00;11.00;7.00
61873;PMS5003;49692;55.052;73.310;2022-10-23T14:10:01;14.25;9.50;8.00
61873;PMS5003;49692;55.052;73.310;2022-10-23T14:12:29;12.50;9.50;7.50
61873;PMS5003;49692;55.052;73.310;2022-10-23T14:15:03;10.50;6.75;6.00
61873;PMS5003;49692;55.052;73.310;2022-10-23T14:17:57;13.75;9.50;6.50
61873;PMS5003;49692;55.052;73.310;2022-10-23T14:20:36;10.00;7.00;6.00
61873;PMS5003;49692;55.052;73.310;2022-10-23T14:23:04;15.00;6.00;4.00
61873;PMS5003;49692;55.052;73.310;2022-10-23T14:25:34;10.25;6.25;3.50
61873;PMS5003;49692;55.052;73.310;2022-10-23T14:28:01;10.00;6.00;4.00
61873;PMS5003;49692;55.052;73.310;2022-10-23T14:30:35;8.50;5.50;3.50
61873;PMS5003;49692;55.052;73.310;2022-10-23T14:33:09;9.25;9.25;7.00
61873;PMS5003;49692;55.052;73.310;2022-10-23T14:35:40;12.25;9.00;5.00
61873;PMS5003;49692;55.052;73.310;2022-10-23T14:38:10;8.00;7.00;4.00
61873;PMS5003;49692;55.052;73.310;2022-10-23T14:40:37;7.50;2.00;1.00
61873;PMS5003;49692;55.052;73.310;2022-10-23T14:43:10;8.25;7.75;6.00
61873;PMS5003;49692;55.052;73.310;2022-10-23T14:45:45;3.50;3.00;1.00
61873;PMS5003;49692;55.052;73.310;2022-10-23T14:48:14;11.50;9.00;6.00
61873;PMS5003;49692;55.052;73.310;2022-10-23T14:50:42;9.75;8.00;6.00
61873;PMS5003;49692;55.052;73.310;2022-10-23T14:53:20;7.25;5.00;4.00
61873;PMS5003;49692;55.052;73.310;2022-10-23T14:55:53;8.50;6.50;4.00
61873;PMS5003;49692;55.052;73.310;2022-10-23T14:58:32;16.00;15.50;9.75
61873;PMS5003;49692;55.052;73.310;2022-10-23T15:00:59;12.25;8.00;6.50
61873;PMS5003;49692;55.052;73.310;2022-10-23T15:03:31;15.50;11.50;9.00
61873;PMS5003;49692;55.052;73.310;2022-10-23T15:06:04;14.75;14.50;8.75
61873;PMS5003;49692;55.052;73.310;2022-10-23T15:08:37;11.25;4.50;1.00
61873;PMS5003;49692;55.052;73.310;2022-10-23T15:11:05;16.75;13.00;8.25
61873;PMS5003;49692;55.052;73.310;2022-10-23T15:13:36;9.75;8.00;6.50
61873;PMS5003;49692;55.052;73.310;2022-10-23T15:16:06;19.25;16.75;11.25
61873;PMS5003;49692;55.052;73.310;2022-10-23T15:18:35;12.75;8.50;4.00
61873;PMS5003;49692;55.052;73.310;2022-10-23T15:21:03;17.50;12.75;8.00
61873;PMS5003;49692;55.052;73.310;2022-10-23T15:23:32;14.75;14.50;8.50
61873;PMS5003;49692;55.052;73.310;2022-10-23T15:26:14;13.00;9.75;6.00
61873;PMS5003;49692;55.052;73.310;2022-10-23T15:28:54;17.00;13.50;10.00
61873;PMS5003;49692;55.052;73.310;2022-10-23T15:34:03;14.00;11.25;8.00
61873;PMS5003;49692;55.052;73.310;2022-10-23T15:36:30;11.50;9.00;5.50
61873;PMS5003;49692;55.052;73.310;2022-10-23T15:38:57;14.00;12.00;9.00
61873;PMS5003;49692;55.052;73.310;2022-10-23T15:41:26;18.25;14.25;8.50
61873;PMS5003;49692;55.052;73.310;2022-10-23T15:43:57;19.25;11.00;7.00
61873;PMS5003;49692;55.052;73.310;2022-10-23T15:46:25;23.00;13.50;10.00
61873;PMS5003;49692;55.052;73.310;2022-10-23T15:48:52;3.75;3.00;2.75
61873;PMS5003;49692;55.052;73.310;2022-10-23T15:51:25;17.00;10.50;7.00
61873;PMS5003;49692;55.052;73.310;2022-10-23T15:53:55;12.25;10.00;6.00
61873;PMS5003;49692;55.052;73.310;2022-10-23T15:56:23;14.00;11.00;7.00
61873;PMS5003;49692;55.052;73.310;2022-10-23T15:58:52;14.00;8.75;5.00
61873;PMS5003;49692;55.052;73.310;2022-10-23T16:01:22;11.75;7.50;5.50
61873;PMS5003;49692;55.052;73.310;2022-10-23T16:03:49;13.00;8.00;7.00
61873;PMS5003;49692;55.052;73.310;2022-10-23T16:06:18;9.25;5.00;3.50
61873;PMS5003;49692;55.052;73.310;2022-10-23T16:08:52;9.25;6.00;4.00
61873;PMS5003;49692;55.052;73.310;2022-10-23T16:11:30;14.00;6.25;3.75
61873;PMS5003;49692;55.052;73.310;2022-10-23T16:14:14;15.00;9.50;6.00
61873;PMS5003;49692;55.052;73.310;2022-10-23T16:16:43;14.00;9.00;6.00
61873;PMS5003;49692;55.052;73.310;2022-10-23T16:19:11;9.25;7.00;6.50
61873;PMS5003;49692;55.052;73.310;2022-10-23T16:21:38;19.25;12.25;8.50
61873;PMS5003;49692;55.052;73.310;2022-10-23T16:24:32;8.50;6.25;3.00
61873;PMS5003;49692;55.052;73.310;2022-10-23T16:27:05;18.75;8.00;5.00
61873;PMS5003;49692;55.052;73.310;2022-10-23T16:29:44;9.75;8.00;5.00
61873;PMS5003;49692;55.052;73.310;2022-10-23T16:32:12;9.75;6.75;5.00
61873;PMS5003;49692;55.052;73.310;2022-10-23T16:34:44;12.00;6.25;4.00
61873;PMS5003;49692;55.052;73.310;2022-10-23T16:37:14;11.00;4.75;3.50
61873;PMS5003;49692;55.052;73.310;2022-10-23T16:40:10;13.00;7.00;4.00
61873;PMS5003;49692;55.052;73.310;2022-10-23T16:43:14;9.75;6.75;3.50
61873;PMS5003;49692;55.052;73.310;2022-10-23T16:46:02;4.00;4.00;3.50
61873;PMS5003;49692;55.052;73.310;2022-10-23T16:48:46;4.00;3.25;3.00
61873;PMS5003;49692;55.052;73.310;2022-10-23T16:51:15;12.50;8.00;5.00
61873;PMS5003;49692;55.052;73.310;2022-10-23T16:53:54;12.75;7.50;3.50
61873;PMS5003;49692;55.052;73.310;2022-10-23T16:56:55;6.00;3.00;2.00
61873;PMS5003;49692;55.052;73.310;2022-10-23T16:59:32;8.00;5.00;3.00
61873;PMS5003;49692;55.052;73.310;2022-10-23T17:02:00;15.00;9.00;5.50
61873;PMS5003;49692;55.052;73.310;2022-10-23T17:07:57;10.50;8.00;6.50
61873;PMS5003;49692;55.052;73.310;2022-10-23T17:10:27;14.00;12.25;6.50
61873;PMS5003;49692;55.052;73.310;2022-10-23T17:13:09;5.25;4.50;4.00
61873;PMS5003;49692;55.052;73.310;2022-10-23T17:15:41;14.00;6.75;4.50
61873;PMS5003;49692;55.052;73.310;2022-10-23T17:18:12;8.50;4.50;4.00
61873;PMS5003;49692;55.052;73.310;2022-10-23T17:20:56;12.50;9.50;7.00
61873;PMS5003;49692;55.052;73.310;2022-10-23T17:23:30;6.75;2.00;0.75
61873;PMS5003;49692;55.052;73.310;2022-10-23T17:25:59;7.50;6.00;3.75
61873;PMS5003;49692;55.052;73.310;2022-10-23T17:28:30;12.75;7.00;4.50
61873;PMS5003;49692;55.052;73.310;2022-10-23T17:30:57;10.50;8.00;5.50
61873;PMS5003;49692;55.052;73.310;2022-10-23T17:33:31;12.50;9.00;6.25
61873;PMS5003;49692;55.052;73.310;2022-10-23T17:36:02;7.50;6.50;3.25